Etusivu
METAR-TAF:

METAR-TAF

Lentoasemat :

Larnakan kansainvälinen lentoasema

Larnaka, Kypros

Leveyspiiri: 34-53N, Pituuspiiri: 033-38E, korkeus merenpinnasta: 2 m

Tämänhetkinen sää

Tämä raportti tehtiin 14 minuuttia sitten, kello 15.30 UTC
Tuuli 12 kn etelästä/lounaasta
Lämpötila 31°C
Kosteus 84%
Ilmanpaine 1002 hPa
Näkyvyys 10 km tai enemmän
Muutamia pilviä 2500 ft:n korkeudessa

METAR: LCLK 231530Z 21012KT 9999 FEW025 31/28 Q1002 NOSIG

Aika: 18:44 (15:44 UTC)

Sääennuste

Tämä raportti tehtiin 4 tuntia ja 14 minuuttia sitten, kello 11.30 UTC
Ennuste voimassa 23. päivästä klo 12 UTC - 24. päivään klo 12 UTC
Tuuli 15 kn etelästä/lounaasta
Näkyvyys 10 km tai enemmän
Muutamia pilviä 4000 ft:n korkeudessa
Tulossa
23. päivästä klo 17 UTC - 23. päivään klo 21 UTC
Tuuli 5 kn pohjoisen/luoteesta
Tulossa
14. päivästä klo 07 UTC - 24. päivään klo 10 UTC
Tuuli 16 kn etelästä

TAF: LCLK 231130Z 2312/2412 21015KT 9999 FEW040 BECMG 2317/2321 33005KT BECMG 1407/2410 19016KT

Säähavainnot ja -ennusteet yli 4000 lentoasemalta (METAR- ja TAF-raportit).

Käytössä olevat sääasemat on merkitty karttaan keltaisilla ja punaisilla pisteillä.

Aseta hiiri pisteen päälle nähdäksesi sääaseman nimen.

Klikkaa sitten nähdäksesi säähavainnot ja -ennusteet.

Kartan vaihtaminen: klikkaa mustalla rastilla varustettuja vihreitä pisteitä, niin voit zoomata sisään; viivalla varustettua vihreää pistettä, niin voit zoomata ulos tai vihreitä nuolia, niin pääset viereisille kartoille.


METAR-TAF: